createdAt,value
2017-08-07T00:00:53.432Z,3.90
2017-08-07T00:03:21.295Z,4.93
2017-08-07T00:05:49.101Z,3.80
2017-08-07T00:08:16.910Z,4.50
2017-08-07T00:10:44.668Z,5.03
2017-08-07T00:13:12.479Z,5.37
2017-08-07T00:15:40.340Z,3.63
2017-08-07T00:18:08.144Z,4.50
2017-08-07T00:20:35.900Z,4.40
2017-08-07T00:23:03.722Z,4.27
2017-08-07T00:25:31.582Z,3.77
2017-08-07T00:27:59.388Z,3.70
2017-08-07T00:30:27.273Z,5.00
2017-08-07T00:32:55.087Z,4.07
2017-08-07T00:35:22.944Z,4.70
2017-08-07T00:37:50.810Z,4.33
2017-08-07T00:40:18.673Z,4.30
2017-08-07T00:42:46.482Z,4.27
2017-08-07T00:45:14.308Z,3.83
2017-08-07T00:47:42.179Z,4.43
2017-08-07T00:50:09.896Z,3.63
2017-08-07T00:52:37.785Z,4.50
2017-08-07T00:55:05.612Z,4.80
2017-08-07T00:57:33.447Z,3.70
2017-08-07T01:00:01.293Z,4.63
2017-08-07T01:02:29.134Z,4.40
2017-08-07T01:04:56.949Z,4.73
2017-08-07T01:07:24.808Z,4.93
2017-08-07T01:09:52.529Z,5.30
2017-08-07T01:12:20.391Z,4.27
2017-08-07T01:14:48.191Z,4.90
2017-08-07T01:17:16.072Z,4.90
2017-08-07T01:19:43.873Z,4.33
2017-08-07T01:22:11.715Z,4.23
2017-08-07T01:24:39.572Z,4.03
2017-08-07T01:27:07.407Z,5.03
2017-08-07T01:29:35.264Z,5.27
2017-08-07T01:32:03.085Z,5.50
2017-08-07T01:34:30.952Z,4.50
2017-08-07T01:36:58.766Z,5.20
2017-08-07T01:39:26.641Z,3.90
2017-08-07T01:41:54.517Z,3.90
2017-08-07T01:44:22.382Z,3.30
2017-08-07T01:46:50.228Z,3.40
2017-08-07T01:49:18.098Z,4.40
2017-08-07T01:51:45.910Z,4.50
2017-08-07T01:54:13.789Z,4.43
2017-08-07T01:56:41.583Z,4.20
2017-08-07T01:59:09.478Z,4.10
2017-08-07T02:01:37.344Z,4.20
2017-08-07T02:04:05.214Z,4.20
2017-08-07T02:06:33.068Z,4.33
2017-08-07T02:09:00.792Z,4.30
2017-08-07T02:11:28.672Z,4.30
2017-08-07T02:13:56.480Z,4.20
2017-08-07T02:16:24.346Z,4.60
2017-08-07T02:18:52.164Z,4.93
2017-08-07T02:21:20.016Z,4.93
2017-08-07T02:23:47.830Z,5.97
2017-08-07T02:26:15.709Z,5.27
2017-08-07T02:28:43.516Z,4.87
2017-08-07T02:31:11.267Z,3.87
2017-08-07T02:33:39.123Z,4.30
2017-08-07T02:36:06.939Z,3.97
2017-08-07T02:38:34.824Z,3.97
2017-08-07T02:41:02.641Z,4.30
2017-08-07T02:43:30.492Z,4.50
2017-08-07T02:45:58.301Z,4.10
2017-08-07T02:48:26.159Z,3.53
2017-08-07T02:50:53.963Z,3.90
2017-08-07T02:53:21.828Z,3.73
2017-08-07T02:55:49.620Z,3.47
2017-08-07T02:58:17.431Z,3.53
2017-08-07T03:00:45.349Z,3.73
2017-08-07T03:03:13.154Z,4.97
2017-08-07T03:05:41.017Z,4.30
2017-08-07T03:08:08.846Z,4.10
2017-08-07T03:10:36.713Z,3.97
2017-08-07T03:13:04.533Z,3.70
2017-08-07T03:15:32.407Z,3.60
2017-08-07T03:18:00.213Z,4.13
2017-08-07T03:20:28.097Z,4.30
2017-08-07T03:22:55.892Z,4.50
2017-08-07T03:25:23.741Z,4.20
2017-08-07T03:27:51.506Z,4.10
2017-08-07T03:30:19.353Z,4.10
2017-08-07T03:32:47.157Z,3.67
2017-08-07T03:35:14.999Z,4.07
2017-08-07T03:37:42.812Z,3.77
2017-08-07T03:40:10.613Z,4.00
2017-08-07T03:42:38.456Z,4.03
2017-08-07T03:45:06.273Z,4.43
2017-08-07T03:47:34.224Z,4.23
2017-08-07T03:50:02.040Z,3.70
2017-08-07T03:52:29.996Z,4.93
2017-08-07T03:54:57.842Z,4.27
2017-08-07T03:57:25.784Z,4.17
2017-08-07T03:59:53.700Z,4.27
2017-08-07T04:02:21.665Z,3.80
2017-08-07T04:04:49.484Z,3.77
2017-08-07T04:07:17.433Z,3.40
2017-08-07T04:09:45.282Z,4.17
2017-08-07T04:12:13.156Z,3.77
2017-08-07T04:14:40.964Z,5.10
2017-08-07T04:17:08.764Z,4.73
2017-08-07T04:19:36.613Z,3.97
2017-08-07T04:22:04.434Z,3.60
2017-08-07T04:24:32.313Z,3.50
2017-08-07T04:27:00.129Z,3.47
2017-08-07T04:29:27.892Z,3.40
2017-08-07T04:31:55.717Z,3.60
2017-08-07T04:34:23.569Z,3.00
2017-08-07T04:36:51.396Z,2.90
2017-08-07T04:39:19.250Z,3.27
2017-08-07T04:41:47.035Z,3.10
2017-08-07T04:44:14.899Z,3.50
2017-08-07T04:46:42.733Z,3.50
2017-08-07T04:49:10.591Z,3.47
2017-08-07T04:51:38.408Z,3.77
2017-08-07T04:54:06.229Z,3.33
2017-08-07T04:56:34.073Z,4.00
2017-08-07T04:59:01.898Z,4.30
2017-08-07T05:01:29.801Z,4.10
2017-08-07T05:03:57.624Z,4.30
2017-08-07T05:06:25.526Z,4.53
2017-08-07T05:08:53.364Z,4.13
2017-08-07T05:11:21.214Z,3.70
2017-08-07T05:13:49.950Z,3.03
2017-08-07T05:16:17.814Z,2.63
2017-08-07T05:18:45.625Z,2.57
2017-08-07T05:21:13.402Z,2.77
2017-08-07T05:23:41.208Z,2.63
2017-08-07T05:26:09.008Z,2.37
2017-08-07T05:28:36.891Z,2.70
2017-08-07T05:31:04.730Z,2.53
2017-08-07T05:33:36.092Z,2.77
2017-08-07T05:36:03.934Z,3.00
2017-08-07T05:38:31.802Z,2.50
2017-08-07T05:40:59.518Z,2.70
2017-08-07T05:43:27.374Z,2.40
2017-08-07T05:45:55.194Z,2.50
2017-08-07T05:48:23.073Z,3.30
2017-08-07T05:50:50.891Z,3.13
2017-08-07T05:53:18.704Z,3.40
2017-08-07T05:55:46.599Z,3.93
2017-08-07T05:58:14.423Z,4.37
2017-08-07T06:00:42.308Z,4.20
2017-08-07T06:03:10.144Z,4.27
2017-08-07T06:05:38.031Z,4.30
2017-08-07T06:08:05.835Z,4.33
2017-08-07T06:10:33.737Z,4.30
2017-08-07T06:13:01.593Z,4.30
2017-08-07T06:15:29.480Z,4.20
2017-08-07T06:17:57.305Z,4.53
2017-08-07T06:20:25.151Z,4.73
2017-08-07T06:22:52.978Z,4.60
2017-08-07T06:25:20.859Z,5.20
2017-08-07T06:27:48.696Z,5.50
2017-08-07T06:30:16.522Z,5.50
2017-08-07T06:32:44.389Z,5.47
2017-08-07T06:35:12.171Z,5.67
2017-08-07T06:37:39.932Z,5.50
2017-08-07T06:40:13.065Z,5.63
2017-08-07T06:42:40.818Z,6.03
2017-08-07T06:45:08.548Z,6.10
2017-08-07T06:47:36.328Z,5.80
2017-08-07T06:50:04.065Z,5.70
2017-08-07T06:52:31.839Z,5.97
2017-08-07T06:54:59.547Z,6.10
2017-08-07T06:57:27.324Z,5.73
2017-08-07T06:59:55.056Z,5.90
2017-08-07T07:02:22.773Z,6.00
2017-08-07T07:04:50.545Z,5.60
2017-08-07T07:07:18.291Z,5.83
2017-08-07T07:09:46.076Z,5.40
2017-08-07T07:12:13.781Z,5.27
2017-08-07T07:14:41.600Z,5.57
2017-08-07T07:17:09.345Z,5.60
2017-08-07T07:19:37.108Z,5.43
2017-08-07T07:22:04.825Z,5.20
2017-08-07T07:24:32.611Z,5.10
2017-08-07T07:27:00.331Z,5.13
2017-08-07T07:29:28.104Z,4.90
2017-08-07T07:31:55.846Z,4.70
2017-08-07T07:34:23.633Z,5.07
2017-08-07T07:36:51.375Z,3.97
2017-08-07T07:39:19.177Z,4.20
2017-08-07T07:41:46.965Z,4.50
2017-08-07T07:44:14.694Z,4.30
2017-08-07T07:46:42.468Z,3.97
2017-08-07T07:49:10.184Z,3.90
2017-08-07T07:51:37.962Z,3.67
2017-08-07T07:54:05.704Z,3.40
2017-08-07T07:56:33.486Z,3.60
2017-08-07T07:59:01.256Z,3.50
2017-08-07T08:01:29.047Z,3.70
2017-08-07T08:03:56.828Z,3.10
2017-08-07T08:06:24.595Z,3.40
2017-08-07T08:08:52.717Z,3.97
2017-08-07T08:11:20.497Z,3.40
2017-08-07T08:13:48.273Z,3.20
2017-08-07T08:16:15.993Z,3.07
2017-08-07T08:18:43.922Z,2.80
2017-08-07T08:21:11.674Z,2.90
2017-08-07T08:23:39.582Z,3.30
2017-08-07T08:26:07.461Z,3.40
2017-08-07T08:28:35.236Z,2.80
2017-08-07T08:31:03.064Z,2.97
2017-08-07T08:33:30.883Z,2.50
2017-08-07T08:35:58.744Z,2.80
2017-08-07T08:38:26.672Z,2.40
2017-08-07T08:40:54.512Z,2.67
2017-08-07T08:43:22.432Z,2.90
2017-08-07T08:45:50.237Z,2.60
2017-08-07T08:48:18.110Z,2.70
2017-08-07T08:50:45.924Z,2.60
2017-08-07T08:53:13.697Z,2.43
2017-08-07T08:55:41.582Z,3.07
2017-08-07T08:58:09.408Z,3.13
2017-08-07T09:00:37.224Z,3.27
2017-08-07T09:03:05.049Z,2.93
2017-08-07T09:05:32.964Z,2.70
2017-08-07T09:08:00.789Z,3.30
2017-08-07T09:10:28.689Z,3.00
2017-08-07T09:12:56.529Z,2.60
2017-08-07T09:15:24.408Z,2.47
2017-08-07T09:17:52.219Z,2.63
2017-08-07T09:20:21.051Z,2.63
2017-08-07T09:22:48.895Z,2.50
2017-08-07T09:25:16.614Z,2.60
2017-08-07T09:27:44.491Z,2.67
2017-08-07T09:30:12.338Z,2.63
2017-08-07T09:32:40.180Z,2.27
2017-08-07T09:35:08.024Z,2.43
2017-08-07T09:37:35.895Z,2.33
2017-08-07T09:40:03.791Z,2.37
2017-08-07T09:42:31.683Z,2.67
2017-08-07T09:44:59.510Z,3.13
2017-08-07T09:47:27.356Z,3.40
2017-08-07T09:49:55.169Z,2.90
2017-08-07T09:52:23.059Z,2.80
2017-08-07T09:54:50.883Z,3.50
2017-08-07T09:57:18.717Z,3.10
2017-08-07T09:59:46.612Z,2.73
2017-08-07T10:02:14.452Z,3.20
2017-08-07T10:04:42.311Z,3.00
2017-08-07T10:07:10.120Z,2.80
2017-08-07T10:09:37.981Z,3.07
2017-08-07T10:12:05.716Z,2.80
2017-08-07T10:14:33.576Z,2.70
2017-08-07T10:17:01.376Z,3.00
2017-08-07T10:19:29.100Z,3.10
2017-08-07T10:21:56.884Z,2.50
2017-08-07T10:24:24.632Z,2.60
2017-08-07T10:26:52.537Z,2.47
2017-08-07T10:29:20.388Z,2.80
2017-08-07T10:31:48.305Z,2.70
2017-08-07T10:34:16.130Z,2.60
2017-08-07T10:36:43.996Z,2.40
2017-08-07T10:39:11.835Z,2.90
2017-08-07T10:41:39.731Z,2.50
2017-08-07T10:44:07.457Z,2.70
2017-08-07T10:46:35.331Z,2.50
2017-08-07T10:49:03.207Z,2.50
2017-08-07T10:51:31.080Z,2.80
2017-08-07T10:53:58.864Z,2.60
2017-08-07T10:56:26.702Z,2.60
2017-08-07T10:58:54.574Z,2.43
2017-08-07T11:01:22.330Z,2.50
2017-08-07T11:03:50.204Z,2.70
2017-08-07T11:06:18.016Z,2.43
2017-08-07T11:08:45.898Z,2.67
2017-08-07T11:11:13.724Z,2.70
2017-08-07T11:13:41.614Z,2.97
2017-08-07T11:16:09.450Z,2.70
2017-08-07T11:18:37.342Z,2.90
2017-08-07T11:21:05.177Z,2.70
2017-08-07T11:23:33.018Z,2.80
2017-08-07T11:26:00.876Z,2.40
2017-08-07T11:28:28.744Z,2.40
2017-08-07T11:30:56.621Z,2.37
2017-08-07T11:33:24.480Z,2.80
2017-08-07T11:35:52.355Z,2.60
2017-08-07T11:38:20.054Z,3.00
2017-08-07T11:40:47.835Z,2.83
2017-08-07T11:43:15.576Z,2.60
2017-08-07T11:45:43.362Z,2.60
2017-08-07T11:48:11.093Z,2.83
2017-08-07T11:50:38.845Z,2.80
2017-08-07T11:53:06.556Z,2.40
2017-08-07T11:55:34.337Z,2.77
2017-08-07T11:58:02.073Z,2.83
2017-08-07T12:00:29.791Z,2.50
2017-08-07T12:02:57.567Z,2.90
2017-08-07T12:05:25.281Z,2.30
2017-08-07T12:07:53.043Z,2.60
2017-08-07T12:10:20.787Z,2.80
2017-08-07T12:12:48.560Z,2.60
2017-08-07T12:15:16.292Z,2.57
2017-08-07T12:17:44.074Z,2.60
2017-08-07T12:20:11.797Z,3.00
2017-08-07T12:22:39.555Z,3.00
2017-08-07T12:25:07.264Z,2.80
2017-08-07T12:27:35.050Z,2.57
2017-08-07T12:30:02.816Z,2.50
2017-08-07T12:32:30.544Z,2.80
2017-08-07T12:34:58.312Z,2.73
2017-08-07T12:37:26.017Z,2.47
2017-08-07T12:39:53.816Z,2.33
2017-08-07T12:42:21.568Z,2.40
2017-08-07T12:44:49.337Z,2.87
2017-08-07T12:47:17.067Z,2.50
2017-08-07T12:49:44.836Z,2.30
2017-08-07T12:52:12.555Z,2.27
2017-08-07T12:54:40.308Z,2.53
2017-08-07T12:57:08.049Z,2.87
2017-08-07T12:59:35.869Z,2.20
2017-08-07T13:02:03.599Z,2.37
2017-08-07T13:04:31.357Z,2.20
2017-08-07T13:06:59.109Z,2.30
2017-08-07T13:09:26.883Z,2.43
2017-08-07T13:11:54.657Z,2.40
2017-08-07T13:14:22.418Z,2.70
2017-08-07T13:16:50.185Z,2.20
2017-08-07T13:19:18.272Z,2.30
2017-08-07T13:21:46.032Z,2.40
2017-08-07T13:24:13.773Z,2.20
2017-08-07T13:26:41.532Z,2.30
2017-08-07T13:29:09.266Z,2.33
2017-08-07T13:31:37.018Z,2.40
2017-08-07T13:34:04.738Z,2.50
2017-08-07T13:36:32.459Z,2.70
2017-08-07T13:39:00.239Z,2.30
2017-08-07T13:41:27.963Z,2.53
2017-08-07T13:43:55.754Z,2.47
2017-08-07T13:46:23.503Z,2.53
2017-08-07T13:48:51.426Z,2.20
2017-08-07T13:51:19.260Z,2.20
2017-08-07T13:53:47.045Z,2.10
2017-08-07T13:56:14.763Z,2.50
2017-08-07T13:58:42.579Z,2.00
2017-08-07T14:01:10.506Z,2.30
2017-08-07T14:03:38.265Z,2.60
2017-08-07T14:06:06.069Z,2.10
2017-08-07T14:08:33.799Z,2.47
2017-08-07T14:11:01.580Z,2.43
2017-08-07T14:13:29.339Z,2.43
2017-08-07T14:15:57.115Z,2.67
2017-08-07T14:18:25.025Z,3.03
2017-08-07T14:20:52.798Z,2.43
2017-08-07T14:23:20.551Z,2.80
2017-08-07T14:25:48.331Z,2.60
2017-08-07T14:28:16.281Z,2.60
2017-08-07T14:30:44.184Z,2.43
2017-08-07T14:33:11.929Z,2.47
2017-08-07T14:35:39.672Z,2.40
2017-08-07T14:38:07.689Z,2.93
2017-08-07T14:40:35.580Z,2.50
2017-08-07T14:43:03.472Z,2.30
2017-08-07T14:45:31.234Z,2.33
2017-08-07T14:47:59.103Z,2.47
2017-08-07T14:50:26.920Z,2.50
2017-08-07T14:52:54.805Z,2.70
2017-08-07T14:55:22.620Z,2.30
2017-08-07T14:57:50.499Z,2.80
2017-08-07T15:00:18.439Z,2.70
2017-08-07T15:02:46.405Z,2.60
2017-08-07T15:05:14.256Z,2.50
2017-08-07T15:07:42.151Z,2.50
2017-08-07T15:10:09.937Z,2.50
2017-08-07T15:12:37.815Z,2.60
2017-08-07T15:15:05.740Z,2.67
2017-08-07T15:17:33.519Z,2.53
2017-08-07T15:20:01.406Z,2.93
2017-08-07T15:22:29.254Z,2.63
2017-08-07T15:24:57.181Z,2.60
2017-08-07T15:27:25.035Z,2.70
2017-08-07T15:29:53.016Z,2.60
2017-08-07T15:32:20.914Z,3.03
2017-08-07T15:34:48.874Z,2.47
2017-08-07T15:37:16.788Z,3.07
2017-08-07T15:39:44.658Z,2.73
2017-08-07T15:42:12.430Z,2.70
2017-08-07T15:44:40.253Z,2.83
2017-08-07T15:47:08.025Z,2.30
2017-08-07T15:49:35.790Z,3.00
2017-08-07T15:52:03.776Z,2.90
2017-08-07T15:54:31.517Z,3.00
2017-08-07T15:56:59.289Z,2.83
2017-08-07T15:59:27.203Z,3.00
2017-08-07T16:01:55.002Z,2.87
2017-08-07T16:04:22.938Z,3.13
2017-08-07T16:06:50.709Z,2.87
2017-08-07T16:09:18.707Z,2.87
2017-08-07T16:11:46.581Z,3.10
2017-08-07T16:14:14.576Z,2.77
2017-08-07T16:16:42.510Z,3.10
2017-08-07T16:19:10.527Z,3.10
2017-08-07T16:21:38.470Z,3.20
2017-08-07T16:24:06.428Z,3.03
2017-08-07T16:26:34.351Z,3.20
2017-08-07T16:29:02.368Z,3.43
2017-08-07T16:31:30.442Z,3.50
2017-08-07T16:33:58.503Z,3.40
2017-08-07T16:36:26.659Z,3.20
2017-08-07T16:38:54.697Z,3.10
2017-08-07T16:41:22.724Z,3.50
2017-08-07T16:43:50.565Z,3.10
2017-08-07T16:46:18.590Z,3.50
2017-08-07T16:48:46.569Z,3.50
2017-08-07T16:51:14.722Z,3.40
2017-08-07T16:53:42.713Z,3.70
2017-08-07T16:56:10.597Z,3.50
2017-08-07T16:58:38.775Z,3.67
2017-08-07T17:01:06.921Z,3.57
2017-08-07T17:03:34.951Z,3.70
2017-08-07T17:06:02.900Z,3.23
2017-08-07T17:08:30.755Z,4.27
2017-08-07T17:10:58.598Z,3.70
2017-08-07T17:13:33.695Z,3.90
2017-08-07T17:16:01.413Z,4.17
2017-08-07T17:18:29.205Z,4.10
2017-08-07T17:20:56.960Z,3.63
2017-08-07T17:23:24.739Z,3.70
2017-08-07T17:25:52.449Z,4.07
2017-08-07T17:28:20.237Z,3.70
2017-08-07T17:30:47.969Z,4.20
2017-08-07T17:33:15.696Z,4.50
2017-08-07T17:35:43.608Z,4.10
2017-08-07T17:38:11.458Z,4.57
2017-08-07T17:40:39.360Z,4.30
2017-08-07T17:43:07.261Z,4.50
2017-08-07T17:45:35.187Z,4.70
2017-08-07T17:48:03.040Z,4.70
2017-08-07T17:50:30.948Z,4.30
2017-08-07T17:52:58.822Z,4.63
2017-08-07T17:55:26.756Z,4.10
2017-08-07T17:57:54.634Z,4.70
2017-08-07T18:00:22.606Z,4.67
2017-08-07T18:02:50.470Z,4.23
2017-08-07T18:05:18.395Z,4.80
2017-08-07T18:07:46.380Z,4.63
2017-08-07T18:10:14.380Z,4.17
2017-08-07T18:12:42.326Z,4.53
2017-08-07T18:15:10.228Z,4.53
2017-08-07T18:17:38.332Z,4.60
2017-08-07T18:20:06.244Z,4.97
2017-08-07T18:22:34.326Z,4.67
2017-08-07T18:25:02.373Z,4.70
2017-08-07T18:27:30.410Z,4.93
2017-08-07T18:29:58.427Z,5.00
2017-08-07T18:32:26.567Z,5.57
2017-08-07T18:34:54.632Z,5.40
2017-08-07T18:37:22.692Z,5.27
2017-08-07T18:39:50.693Z,5.33
2017-08-07T18:42:18.603Z,5.47
2017-08-07T18:44:46.650Z,5.70
2017-08-07T18:47:14.653Z,5.63
2017-08-07T18:49:42.700Z,5.90
2017-08-07T18:52:10.700Z,6.37
2017-08-07T18:54:38.733Z,5.93
2017-08-07T18:57:06.693Z,5.57
2017-08-07T18:59:34.693Z,5.93
2017-08-07T19:02:02.572Z,6.53
2017-08-07T19:04:30.615Z,6.83
2017-08-07T19:06:58.490Z,6.30
2017-08-07T19:09:26.471Z,5.80
2017-08-07T19:11:54.296Z,6.17
2017-08-07T19:14:22.056Z,6.60
2017-08-07T19:16:49.860Z,6.60
2017-08-07T19:19:17.631Z,6.60
2017-08-07T19:21:45.412Z,7.00
2017-08-07T19:24:13.144Z,6.00
2017-08-07T19:26:41.039Z,7.27
2017-08-07T19:29:08.915Z,6.43
2017-08-07T19:31:36.910Z,6.70
2017-08-07T19:34:04.632Z,7.17
2017-08-07T19:36:32.532Z,6.70
2017-08-07T19:39:00.444Z,7.27
2017-08-07T19:41:28.341Z,7.00
2017-08-07T19:43:56.366Z,7.03
2017-08-07T19:46:24.169Z,7.20
2017-08-07T19:48:51.952Z,6.40
2017-08-07T19:51:19.697Z,7.20
2017-08-07T19:53:47.500Z,7.77
2017-08-07T19:56:15.307Z,6.97
2017-08-07T19:58:43.107Z,7.40
2017-08-07T20:01:10.845Z,7.27
2017-08-07T20:03:38.631Z,6.87
2017-08-07T20:06:06.376Z,7.10
2017-08-07T20:08:34.342Z,6.83
2017-08-07T20:11:02.091Z,7.60
2017-08-07T20:13:29.831Z,7.27
2017-08-07T20:15:57.666Z,7.50
2017-08-07T20:18:25.474Z,7.47
2017-08-07T20:20:53.288Z,7.93
2017-08-07T20:23:21.253Z,7.30
2017-08-07T20:25:49.067Z,7.50
2017-08-07T20:28:16.868Z,8.10
2017-08-07T20:30:44.664Z,6.90
2017-08-07T20:33:13.455Z,6.97
2017-08-07T20:35:41.164Z,7.17
2017-08-07T20:38:08.946Z,7.60
2017-08-07T20:40:36.662Z,7.00
2017-08-07T20:43:04.584Z,6.70
2017-08-07T20:45:32.538Z,6.03
2017-08-07T20:48:00.465Z,6.80
2017-08-07T20:50:28.209Z,7.03
2017-08-07T20:52:56.010Z,7.30
2017-08-07T20:55:23.949Z,7.10
2017-08-07T20:57:51.764Z,6.43
2017-08-07T21:00:19.912Z,6.83
2017-08-07T21:02:47.726Z,6.50
2017-08-07T21:05:15.475Z,7.40
2017-08-07T21:07:43.258Z,6.87
2017-08-07T21:10:13.619Z,6.83
2017-08-07T21:12:41.593Z,6.60
2017-08-07T21:15:09.425Z,6.60
2017-08-07T21:17:37.203Z,7.20
2017-08-07T21:20:04.976Z,6.73
2017-08-07T21:22:32.781Z,6.70
2017-08-07T21:25:00.580Z,6.30
2017-08-07T21:27:28.360Z,7.67
2017-08-07T21:29:56.147Z,6.70
2017-08-07T21:32:23.895Z,6.70
2017-08-07T21:34:51.650Z,7.30
2017-08-07T21:37:19.569Z,6.90
2017-08-07T21:39:47.359Z,7.30
2017-08-07T21:42:15.123Z,6.43
2017-08-07T21:44:42.922Z,6.97
2017-08-07T21:47:10.778Z,6.30
2017-08-07T21:49:38.687Z,6.20
2017-08-07T21:52:06.617Z,7.60
2017-08-07T21:54:34.464Z,7.37
2017-08-07T21:57:02.402Z,7.37
2017-08-07T21:59:30.318Z,6.90
2017-08-07T22:01:58.140Z,7.33
2017-08-07T22:04:26.051Z,7.00
2017-08-07T22:06:53.967Z,7.10
2017-08-07T22:09:21.825Z,7.53
2017-08-07T22:11:49.936Z,7.20
2017-08-07T22:14:17.801Z,7.00
2017-08-07T22:16:45.897Z,7.30
2017-08-07T22:19:13.815Z,7.00
2017-08-07T22:21:41.865Z,6.83
2017-08-07T22:24:10.002Z,6.70
2017-08-07T22:26:38.016Z,7.17
2017-08-07T22:29:06.077Z,7.37
2017-08-07T22:31:34.062Z,7.17
2017-08-07T22:34:01.883Z,7.00
2017-08-07T22:36:29.782Z,6.90
2017-08-07T22:38:57.765Z,7.10
2017-08-07T22:41:25.677Z,7.27
2017-08-07T22:43:53.650Z,7.70
2017-08-07T22:46:21.548Z,7.20
2017-08-07T22:48:49.440Z,7.30
2017-08-07T22:51:17.256Z,7.23
2017-08-07T22:53:45.184Z,7.20
2017-08-07T22:56:13.131Z,7.50
2017-08-07T22:58:41.054Z,7.67
2017-08-07T23:01:09.088Z,7.27
2017-08-07T23:03:36.917Z,7.30
2017-08-07T23:06:04.881Z,7.87
2017-08-07T23:08:32.816Z,7.30
2017-08-07T23:11:00.723Z,8.20
2017-08-07T23:13:28.574Z,7.80
2017-08-07T23:15:56.511Z,7.90
2017-08-07T23:18:24.345Z,8.23
2017-08-07T23:20:52.311Z,8.13
2017-08-07T23:23:20.248Z,8.30
2017-08-07T23:25:48.165Z,7.93
2017-08-07T23:28:16.037Z,7.60
2017-08-07T23:30:43.815Z,8.10
2017-08-07T23:33:11.571Z,7.90
2017-08-07T23:35:39.536Z,7.50
2017-08-07T23:38:07.470Z,7.23
2017-08-07T23:40:35.348Z,6.90
2017-08-07T23:43:03.293Z,7.00
2017-08-07T23:45:31.132Z,7.33
2017-08-07T23:47:59.086Z,7.47
2017-08-07T23:50:26.988Z,7.80
2017-08-07T23:52:54.938Z,7.53
2017-08-07T23:55:22.888Z,7.60
2017-08-07T23:57:50.797Z,7.90
